BFIBOEING FIELD/KING COUNTY INTL
METARs for nearby airports:
N 0 21' KBFI 181330Z 33004KT 10SM SCT007 BKN012 BKN028 16/12 A2989
SE 4 32' KRNT 181313Z 21003KT 5SM OVC030 17/13 A2989
S 4 432' KSEA 181253Z 23003KT 10SM OVC024 16/12 A2990
W 18 444' KPWT 181318Z 00000KT 10SM BKN017 13/13 A2990
SW 19 294' KTIW 181321Z 31003KT 10SM SCT021 SCT028 14/12 A2990
N 22 607' KPAE 181253Z 01004KT 10SM OVC011 14/13 A2991
S 24 322' KTCM 181258Z 00000KT 10SM OVC028 15/15 A2989
S 25 537' KPLU 181335Z 00000KT 10SM OVC024 16/14 A2990
S 29 301' KGRF 181258Z 00000KT 10SM OVC029 14/14 A2989
N 38 141' KAWO 181256Z 00000KT 10SM OVC021 13/12 A2990
SW 38 272' KSHN 181253Z 00000KT 10SM OVC015 15/13 A2987
SW 41 207' KOLM 181254Z 00000KT 10SM OVC022 14/12 A2989
N 51 47' KNUW 181256Z 20004KT 10SM SCT025 BKN030 BKN070 16/12 A2992
N 56 145' KBVS 181335Z 00000KT 10SM OVC017 14/13 A2988
NW 57 13' KNOW 181310Z 29004KT 10SM OVC022 13/12 A2988
SW 58 177' KCLS 181335Z 00000KT 10SM OVC027 15/14 A2989
NW 59 291' KCLM 181253Z 00000KT 10SM OVC020 14/12 A2989
NW 66 112' KFHR 181321Z 00000KT 3SM BR FEW006 10/09 A2988
SW 74 17' KHQM 181253Z 33003KT 10SM OVC015 15/13 A2989
N 74 34' KORS 181335Z 18010KT 10SM CLR 14/13 A2985
N 76 171' KBLI 181253Z 17008KT 10SM BKN046 15/12 A2986
E 78 1763' KELN 181253Z 32015KT 10SM CLR 16/09 A2981
NW 80 64' CYYJ 181326Z 00000KT 15SM FEW007 FEW050 12/12 A2985
E 85 1248' KEAT 181255Z 30009KT 10SM CLR 17/07 A2978
S 88 20' KKLS 181256Z 34003KT 8SM -RA BKN017 OVC023 16/14 A2990
SE 92 1098' KYKM 181253Z 20004KT 10SM CLR 14/08 A2980
W 94 193' KUIL 181253Z 00000KT 10SM OVC024 14/13 A2989
TAFs for nearby airports:
N 0 21' KBFI KBFI 181135Z 1812/1912 18006KT P6SM OVC025
  FM182000 20006KT P6SM SCT035 BKN050
  FM190100 25006KT P6SM SCT050
  FM190500 VRB03KT P6SM SCT050
S 4 432' KSEA KSEA 181135Z 1812/1918 20006KT P6SM OVC020
  FM182000 23006KT P6SM SCT030 BKN050
  FM190100 25006KT P6SM SCT050
  FM191200 19006KT P6SM OVC020
W 18 444' KPWT TAF KPWT 181135Z 1812/1912 20006KT P6SM OVC006
  FM181600 20006KT P6SM BKN015 OVC025
  FM181900 20006KT P6SM SCT015 OVC025
  FM182100 23006KT P6SM BKN045
  FM190400 VRB03KT P6SM SCT050
  FM191000 VRB03KT P6SM OVC010
N 22 607' KPAE KPAE 181135Z 1812/1912 00000KT P6SM SCT008 OVC015
  TEMPO 1814/1816 BKN008 OVC015
  FM181800 24006KT P6SM BKN025
  FM182100 26006KT P6SM BKN035
  FM190300 34004KT P6SM SCT050
S 24 322' KTCM TAF KTCM 181300Z 1813/1919 VRB06KT 9999 OVC020 QNH2989INS
  BECMG 1815/1819 VRB06KT 9999 BKN030 QNH2987INS
  BECMG 1821/1822 24006KT 9999 SCT030 QNH2985INS
  BECMG 1905/1906 VRB06KT 9999 BKN020 QNH2988INS TX23/1823Z TN13/1813Z
S 29 301' KGRF TAF KGRF 181302Z 1813/1919 VRB06KT 9999 BKN030 QNH2989INS
  BECMG 1821/1822 24006KT 9999 SCT030 QNH2985INS
  BECMG 1905/1906 VRB06KT 9999 BKN020 QNH2988INS TX23/1823Z TN12/1813Z
SW 41 207' KOLM KOLM 181135Z 1812/1912 22006KT P6SM OVC020
  FM181800 24006KT P6SM SCT025 BKN035
  FM190300 24006KT P6SM SCT050
  FM191100 22006KT P6SM OVC025
N 51 47' KNUW TAF
  AMD KNUW 1811/1907 VRB06KT 9000 BR SCT008 BKN012 BKN040 QNH2987INS
  FM181800 22009KT 9999 BKN008 BKN080 QNH2988INS
  FM182000 33011KT 9999 FEW035 QNH2991INS T13/1812Z T16/1820Z
  AMD 1116 FS30134
NW 59 291' KCLM KCLM 181135Z 1812/1912 27008KT P6SM OVC012
  FM181600 27008KT P6SM SCT015 BKN025
  FM181900 29010KT P6SM SCT030 BKN050
  FM190200 29010KT P6SM SCT050
  FM190800 29008KT P6SM OVC015
SW 74 17' KHQM KHQM 181135Z 1812/1912 30006KT P6SM OVC015
  FM181800 24008KT P6SM SCT015 OVC025
  FM182200 28008KT P6SM BKN040
  FM190400 30006KT P6SM OVC020
N 76 171' KBLI KBLI 181135Z 1812/1912 18008KT P6SM BKN045
  FM181400 18008KT P6SM BKN022 OVC040
  FM181800 18008KT P6SM SCT030 BKN050
E 85 1248' KEAT KEAT 181120Z 1812/1912 29008KT P6SM SKC
  FM181800 VRB04KT P6SM SKC
  FM182300 30010G15KT P6SM SKC
SE 92 1098' KYKM TAF KYKM 181120Z 1812/1912 30006KT P6SM FEW250
  FM181600 VRB04KT P6SM FEW250
  FM190100 29006KT P6SM FEW250
  FM190600 32010KT P6SM SKC
Area forecast:
000
FAUS46 KKCI 101945
FA6W  
SFOC FA 101945
SYNOPSIS AND VFR CLDS/WX
SYNOPSIS VALID UNTIL 111400
CLDS/WX VALID UNTIL 110800...OTLK VALID 110800-111400
WA OR CA AND CSTL WTRS
.
SEE AIRMET SIERRA FOR IFR CONDS AND MTN OBSCN.
TS IMPLY SEV OR GTR TURB SEV ICE LLWS AND IFR CONDS.
NON MSL HGTS DENOTED BY AGL OR CIG.
.
SYNOPSIS...UPR LVL TROF WAS LOCATED NR 130W. MOIST SWLY FLOW
EXTDS FROM PAC NW EWD INTO NRN ROCKIES. HIGH PRES RIDGE WAS OVR
MUCH OF THE REST OF THE AREA. BY 14Z...UPR LVL TROF WILL EXTD
FROM WA-OR SWD INTO CA.  ..STREIB..
.
WA CASCDS WWD
CSTL SXNS
CSTLN-INLAND...SCT-BKN025 BKN035-050 TOPS 120-140. ISOL -SHRA.
   OTLK...MVFR CIGS SHRA BR.
PUGET SOUND-INTR VLY...SCT-BKN020 BKN-OVC035-050 TOPS 160 BKN CI.
   WDLY SCT -SHRA. OTLK...MVFR CIGS SHRA.
CASCDS...BKN-OVC050-070 TOPS FL180. BKN CI ABV. WDLY SCT -SHRA.
   OTLK...MVFR CIGS SHRA.
.
WA E OF CASCDS
CNTRL WA...SCT140 OVC CI. BECMG 2302 SCT080 BKN120 LYRD FL240.
   OTLK...VFR.
ERN WA...SCT-BKN140-160 LYRD FL240. BECMG 0508 BKN080 OVC120
   LYRD FL240 ISOL -SHRA DVLPG. OTLK...VFR.
.
OR CASCDS WWD
CSTL SXNS
CSTLN-INLAND...SCT-BKN020 BKN-OVC035-050 TOPS FL180. WDLY SCT
   -SHRA. OTLK...MVFR CIGS SHRA.
WILLAMETTE VLY/SWRN INTR...SCT-BKN020 BKN-OVC035-050 TOPS FL180.
   WDLY SCT -SHRA. OTLK...MVFR CIGS SHRA.
CASCDS...SCT-BKN060 BKN-OVC080-100 TOPS FL180 ISOL -SHRA.
   OTLK...MVFR CIGS SHRA.
.
OR E OF CASCDS
CNTRL...SCT100-120 BKN150 LYRD FL240. OTLK...VFR.
ERN...SCT130-150 BKN CI. BECMG 0205 OVC120-140 LYRD FL240.
   OTLK...VFR.
.
NRN CA...STS-SAC-TVL LN NWD
CSTL SXNS...
   FOT NWD...SCT025 BKN CI ABV. BECMG 0205 SCT020 OVC050 TOPS
      160. ISOL -SHRA. OTLK...IFR CIGS.
   S OF FOT...SCT-BKN010 TOPS 030-040. OTLK...IFR CIGS.
REST OF AREA...SKC OCNL SCT CI. OCNL VYS 3-5SM FU HZ.
   OTLK...VFR.
SAC VLY...
   NRN AND CNTRL SXNS...SKC. OTLK...VFR.
   SRN SXNS...SKC. OCNL VIS 3-5SM FU HZ. OTLK...MVFR FU HZ.
SHASTA-SISKIYOUS-NERN CA...
NRN SIERRAS...SKC OCNL SCT CI. WINDS SLY G25KT. OTLK...VFR WIND.
.
CNTRL CA
CSTL SXNS...
   CSTLN...SKC OCNL SCT010. BECMG 0508 OCNL CIGS BKN-SCT010 TOPS
      020-030. OTLK...IFR CIGS.
   INLAND...SKC. OTLK...VFR BECMG 1114 IFR CIGS BR.
SAN JOAQUIN VLY...SKC. OTLK...VFR.
SRN SIERRAS..SKC. OTLK...VFR.
.
SRN CA..VBG-NID-60NNW BIH LN SWD
CSTL SXNS...
   CSTLN...
      EXTRM SRN SXNS...SKC. BECMG 0205 SCT010. BECMG 0508 CIGS
         BKN-OVC010 TOPS 030. OTLK...IFR CIGS.
      REST OF AREA...SKC. OTLK...VFR BECMG 0811 IFR CIGS BR.
   INLAND...SKC OCNL FEW CI. OTLK...VFR.
INTR MTNS-MOJAVE-SRN DESERTS...SKC OCNL FEW CI. OTLK...VFR.
.
CSTL WTRS
WA...SCT-BKN035-050 TOPS 100-120. ISOL -SHRA. OTLK...VFR.
OR...
NWRN HLF...SCT-BKN035-050 TOPS 100-120. ISOL -SHRA. OTLK...VFR.
SERN HLF...SCT-BKN025 BKN035-050 TOPS FL180 BKN CI ABV. WDLY SCT
   -SHRA. OTLK...MVFR CIGS SHRA.
CA...
NRN CA...
   FOT NWD...SCT025 BKN CI ABV. BECMG 0205 SCT020 OVC050 TOPS
      160. ISOL -SHRA. OTLK...IFR CIGS.
   S OF FOT...SCT-BKN010 TOPS 030-040. OTLK...IFR CIGS.
CNTRL CA...SCT-BKN010 TOPS 030-040. OTLK...IFR CIGS.
SRN CA...
   OUTER CSTL WTRS...CIGS BKN010-020 TOPS 030-050.
      OTLK...IFR CIGS.
   ADJ CSTL WTRS...SKC. OCNL AGL SCT010. OTLK...VFR BECMG 0811
      IFR CIGS BR.
.
THE AREA FORECAST WILL TERMINATE AT 2359Z ON 10 OCTOBER 2017. IN
PLACE OF THE AREA FORECAST...PLEASE SEE THE GRAPHICAL FORECAST AT
WWW.AVIATIONWEATHER.GOV/GFA. GRAPHICAL AND TEXT AIRMETS WILL
CONTINUE AS REGULARLY SCHEDULED.
....

Shortcut to this page: http://wxbay.com.

Data may contain errors.